Time;durP1;ratioP1;P1;durP2;ratioP2;P2;SDS_P1;SDS_P2;PMS_P1;PMS_P2;Temp;Humidity;BMP_temperature;BMP_pressure;BME280_temperature;BME280_humidity;BME280_pressure;Samples;Min_cycle;Max_cycle;Signal;HPM_P1;HPM_P2
2022/08/04 00:00:11;;;;;;;12.93;5.82;;;21.90;99.90;;;;;;5001449;28;20141;-62
2022/08/04 00:02:36;;;;;;;16.35;5.90;;;21.90;99.90;;;;;;5003902;28;20042;-62
2022/08/04 00:05:22;;;;;;;9.73;5.63;;;21.90;99.90;;;;;;5000660;28;20068;-62
2022/08/04 00:08:05;;;;;;;12.38;6.13;;;21.90;99.90;;;;;;5004090;28;20514;-65
2022/08/04 00:10:35;;;;;;;19.42;6.18;;;21.80;99.90;;;;;;4998682;28;20130;-64
2022/08/04 00:13:03;;;;;;;13.95;6.13;;;21.80;99.90;;;;;;5001898;28;20045;-62
2022/08/04 00:15:32;;;;;;;13.95;5.82;;;21.80;99.90;;;;;;5002937;28;20487;-62
2022/08/04 00:18:04;;;;;;;12.55;6.10;;;21.80;99.90;;;;;;5002287;28;20046;-64
2022/08/04 00:20:33;;;;;;;15.13;5.65;;;21.80;99.90;;;;;;5010506;28;20122;-62
2022/08/04 00:23:01;;;;;;;13.70;5.90;;;21.80;99.90;;;;;;5006846;28;20062;-65
2022/08/04 00:25:27;;;;;;;13.55;6.18;;;21.80;99.90;;;;;;5005320;28;20491;-69
2022/08/04 00:27:53;;;;;;;17.42;6.60;;;21.80;99.90;;;;;;5001425;28;20056;-64
2022/08/04 00:30:20;;;;;;;17.88;6.65;;;21.80;99.90;;;;;;5004628;28;20107;-62
2022/08/04 00:32:46;;;;;;;14.38;6.95;;;21.80;99.90;;;;;;4996568;28;20054;-62
2022/08/04 00:35:16;;;;;;;16.88;7.40;;;21.80;99.90;;;;;;4995857;28;20133;-62
2022/08/04 00:37:45;;;;;;;13.20;7.18;;;21.70;99.90;;;;;;5005849;28;20057;-62
2022/08/04 00:40:29;;;;;;;17.42;7.95;;;21.60;99.90;;;;;;5005172;28;20085;-62
2022/08/04 00:43:05;;;;;;;16.75;7.38;;;21.60;99.90;;;;;;5004951;28;20042;-63
2022/08/04 00:45:34;;;;;;;17.00;7.28;;;21.60;99.90;;;;;;5005692;28;20052;-63
2022/08/04 00:48:28;;;;;;;18.48;8.02;;;21.60;99.90;;;;;;5004500;28;20145;-62
2022/08/04 00:51:20;;;;;;;;;;;21.60;99.90;;;;;;5002137;28;20049;-62
2022/08/04 00:54:03;;;;;;;20.23;8.63;;;21.60;99.90;;;;;;5004452;28;19976;-63
2022/08/04 00:56:48;;;;;;;15.57;7.82;;;21.60;99.90;;;;;;4998868;28;20039;-68
2022/08/04 00:59:32;;;;;;;;;;;21.60;99.90;;;;;;5019777;28;20057;-62
2022/08/04 01:02:14;;;;;;;18.23;8.15;;;21.60;99.90;;;;;;5003083;28;19967;-64
2022/08/04 01:04:52;;;;;;;19.30;7.93;;;21.60;99.90;;;;;;5007362;28;20092;-62
2022/08/04 01:07:24;;;;;;;17.38;8.23;;;21.60;99.90;;;;;;5006065;28;20052;-62
2022/08/04 01:10:20;;;;;;;17.50;8.55;;;21.60;99.90;;;;;;5020098;28;20518;-63
2022/08/04 01:13:03;;;;;;;19.38;7.95;;;21.50;99.90;;;;;;5003111;28;20518;-63
2022/08/04 01:15:39;;;;;;;16.25;8.05;;;21.50;99.90;;;;;;4997931;28;20502;-63
2022/08/04 01:18:07;;;;;;;16.38;7.57;;;21.50;99.90;;;;;;5004911;28;20078;-62
2022/08/04 01:21:07;;;;;;;16.95;7.38;;;21.50;99.90;;;;;;5004056;28;20103;-68
2022/08/04 01:24:07;;;;;;;15.23;7.65;;;21.50;99.90;;;;;;5002467;28;20385;-68
2022/08/04 01:26:52;;;;;;;14.23;7.97;;;21.50;99.90;;;;;;4991946;28;20049;-67
2022/08/04 01:29:21;;;;;;;18.58;7.97;;;21.50;99.90;;;;;;4998825;28;20517;-63
2022/08/04 01:32:02;;;;;;;15.40;7.53;;;21.40;99.90;;;;;;5008495;28;20053;-64
2022/08/04 01:34:41;;;;;;;14.30;7.50;;;21.40;99.90;;;;;;5008314;28;20050;-63
2022/08/04 01:37:14;;;;;;;26.27;7.97;;;21.40;99.90;;;;;;5001173;28;20054;-63
2022/08/04 01:39:55;;;;;;;19.88;7.60;;;21.40;99.90;;;;;;5007956;28;20534;-63
2022/08/04 01:42:23;;;;;;;19.63;7.13;;;21.40;99.90;;;;;;5002132;28;20121;-63
2022/08/04 01:44:50;;;;;;;16.98;7.75;;;21.40;99.90;;;;;;5002295;28;20060;-63
2022/08/04 01:47:19;;;;;;;12.75;7.15;;;21.40;99.90;;;;;;5009854;28;20558;-62
2022/08/04 01:49:48;;;;;;;15.65;7.05;;;21.40;99.90;;;;;;5006209;28;20061;-63
2022/08/04 01:52:16;;;;;;;18.58;6.88;;;21.40;99.90;;;;;;5009570;28;20124;-62
2022/08/04 01:54:42;;;;;;;15.20;7.25;;;21.40;99.90;;;;;;5008540;28;20046;-61
2022/08/04 01:57:13;;;;;;;16.17;7.22;;;21.40;99.90;;;;;;5007125;28;20046;-62
2022/08/04 01:59:39;;;;;;;16.75;7.35;;;21.30;99.90;;;;;;4990628;28;20042;-68
2022/08/04 02:02:05;;;;;;;14.32;6.78;;;21.40;99.90;;;;;;5007034;28;20042;-64
2022/08/04 02:04:31;;;;;;;15.60;7.25;;;21.40;99.90;;;;;;5006539;28;20038;-63
2022/08/04 02:07:18;;;;;;;16.55;7.53;;;21.30;99.90;;;;;;5009800;28;20050;-63
2022/08/04 02:10:01;;;;;;;15.30;7.57;;;21.30;99.90;;;;;;5002338;28;20506;-65
2022/08/04 02:12:32;;;;;;;11.30;7.20;;;21.30;99.90;;;;;;5008993;28;20084;-62
2022/08/04 02:15:22;;;;;;;18.42;7.15;;;21.30;99.90;;;;;;5010392;28;20056;-62
2022/08/04 02:18:09;;;;;;;15.90;7.05;;;21.20;99.90;;;;;;5003275;28;20042;-62
2022/08/04 02:20:43;;;;;;;17.05;6.88;;;21.20;99.90;;;;;;5004440;28;20046;-63
2022/08/04 02:23:13;;;;;;;15.77;7.43;;;21.20;99.90;;;;;;4999688;28;20144;-64
2022/08/04 02:25:44;;;;;;;16.02;7.82;;;21.20;99.90;;;;;;5006808;28;20464;-62
2022/08/04 02:28:32;;;;;;;15.52;8.18;;;21.10;99.90;;;;;;5004721;28;20047;-62
2022/08/04 02:31:14;;;;;;;17.98;8.43;;;21.10;99.90;;;;;;5006213;28;20573;-63
2022/08/04 02:33:47;;;;;;;13.82;7.57;;;21.10;99.90;;;;;;5006111;28;20840;-62
2022/08/04 02:36:28;;;;;;;17.70;8.27;;;21.10;99.90;;;;;;5002410;28;20050;-63
2022/08/04 02:38:58;;;;;;;16.73;7.85;;;21.10;99.90;;;;;;5009845;28;20057;-62
2022/08/04 02:41:25;;;;;;;11.07;7.50;;;21.10;99.90;;;;;;5001756;28;20074;-62
2022/08/04 02:43:55;;;;;;;19.05;7.30;;;21.10;99.90;;;;;;5003770;28;20049;-63
2022/08/04 02:46:22;;;;;;;18.98;8.40;;;21.10;99.90;;;;;;5004322;28;20121;-63
2022/08/04 02:48:51;;;;;;;18.15;7.93;;;21.10;99.90;;;;;;5007143;28;20057;-62
2022/08/04 02:51:26;;;;;;;22.85;8.88;;;21.10;99.90;;;;;;5003264;28;20099;-63
2022/08/04 02:53:55;;;;;;;15.88;8.05;;;21.00;99.90;;;;;;5000010;28;20050;-62
2022/08/04 02:56:22;;;;;;;18.92;8.35;;;21.00;99.90;;;;;;5003260;28;20218;-62
2022/08/04 02:58:57;;;;;;;19.00;7.75;;;21.00;99.90;;;;;;5008947;28;20046;-63
2022/08/04 03:01:23;;;;;;;14.50;7.57;;;21.00;99.90;;;;;;5002509;28;20054;-61
2022/08/04 03:04:00;;;;;;;16.45;7.75;;;21.00;99.90;;;;;;5003421;28;20407;-67
2022/08/04 03:06:51;;;;;;;19.00;7.95;;;21.00;99.90;;;;;;5002410;28;20530;-62
2022/08/04 03:09:45;;;;;;;15.48;7.13;;;21.00;99.90;;;;;;5006000;28;20495;-64
2022/08/04 03:12:38;;;;;;;14.10;7.25;;;21.00;99.90;;;;;;5007551;28;20046;-62
2022/08/04 03:15:13;;;;;;;13.40;6.70;;;21.00;99.90;;;;;;5003780;28;20090;-63
2022/08/04 03:17:57;;;;;;;16.38;6.78;;;21.00;99.90;;;;;;5001294;28;20043;-62
2022/08/04 03:20:47;;;;;;;16.60;6.60;;;21.00;99.90;;;;;;5008084;28;20472;-62
2022/08/04 03:23:44;;;;;;;11.55;6.70;;;21.00;99.90;;;;;;5003517;28;20092;-62
2022/08/04 03:26:48;;;;;;;14.85;6.72;;;21.00;99.90;;;;;;5004131;28;20197;-63
2022/08/04 03:29:20;;;;;;;13.33;6.80;;;21.00;99.90;;;;;;4937583;29;20047;-61
2022/08/04 03:31:54;;;;;;;15.38;6.75;;;21.00;99.90;;;;;;4996867;28;20573;-62
2022/08/04 03:34:26;;;;;;;13.73;6.43;;;21.00;99.90;;;;;;5009536;28;20053;-63
2022/08/04 03:37:09;;;;;;;16.48;6.47;;;21.00;99.90;;;;;;5006183;28;20041;-68
2022/08/04 03:39:53;;;;;;;11.93;5.95;;;21.00;99.90;;;;;;5007614;28;20042;-63
2022/08/04 03:42:49;;;;;;;11.65;6.15;;;21.00;99.90;;;;;;5008936;28;20049;-62
2022/08/04 03:45:32;;;;;;;12.65;6.60;;;21.00;99.90;;;;;;5008508;28;20499;-63
2022/08/04 03:48:01;;;;;;;11.13;6.18;;;21.00;99.90;;;;;;5005901;28;20495;-62
2022/08/04 03:54:36;;;;;;;17.60;6.72;;;21.10;99.90;;;;;;5006697;28;20427;-62
2022/08/04 03:57:20;;;;;;;15.90;6.80;;;21.10;99.90;;;;;;4966600;28;20122;-63
2022/08/04 03:59:50;;;;;;;;;;;21.10;99.90;;;;;;5005263;28;20153;-63
2022/08/04 04:02:35;;;;;;;14.77;6.70;;;21.10;99.90;;;;;;5005739;28;20150;-62
2022/08/04 04:05:32;;;;;;;18.52;6.88;;;21.10;99.90;;;;;;5005949;28;20061;-63
2022/08/04 04:08:22;;;;;;;11.55;6.00;;;21.10;99.90;;;;;;4999948;28;20069;-62
2022/08/04 04:11:22;;;;;;;12.45;6.10;;;21.10;99.90;;;;;;4997922;28;20108;-61
2022/08/04 04:14:12;;;;;;;16.40;6.70;;;21.20;99.90;;;;;;5009010;28;20056;-63
2022/08/04 04:17:08;;;;;;;13.10;6.75;;;21.20;99.90;;;;;;4996890;28;20039;-62
2022/08/04 04:19:53;;;;;;;14.18;6.70;;;21.20;99.90;;;;;;5009119;28;20121;-62
2022/08/04 04:22:40;;;;;;;14.07;7.00;;;21.20;99.90;;;;;;5019010;28;20104;-62
2022/08/04 04:25:20;;;;;;;16.70;7.57;;;21.20;99.90;;;;;;4998444;28;20525;-62
2022/08/04 04:28:03;;;;;;;15.25;7.63;;;21.20;99.90;;;;;;5004869;28;20085;-62
2022/08/04 04:30:51;;;;;;;21.02;7.15;;;21.20;99.90;;;;;;5004058;28;20046;-62
2022/08/04 04:33:38;;;;;;;14.13;6.82;;;21.20;99.90;;;;;;5005336;28;20054;-62
2022/08/04 04:36:23;;;;;;;17.88;7.30;;;21.30;99.90;;;;;;5004622;28;20046;-63
2022/08/04 04:38:48;;;;;;;;;;;21.30;99.90;;;;;;4995832;28;20053;-61
2022/08/04 04:41:45;;;;;;;16.10;6.97;;;21.30;99.90;;;;;;5007770;28;19925;-61
2022/08/04 04:44:27;;;;;;;14.45;6.53;;;21.30;99.90;;;;;;5001018;28;20117;-62
2022/08/04 04:47:26;;;;;;;12.73;6.82;;;21.40;99.90;;;;;;5008783;28;20049;-62
2022/08/04 04:50:38;;;;;;;14.55;6.32;;;21.40;99.90;;;;;;5009577;28;20058;-62
2022/08/04 04:53:15;;;;;;;14.27;6.60;;;21.50;99.90;;;;;;4994176;28;20068;-61
2022/08/04 04:55:58;;;;;;;14.35;5.95;;;21.60;99.90;;;;;;5000849;28;20082;-65
2022/08/04 04:58:25;;;;;;;15.95;7.18;;;21.70;99.90;;;;;;5000375;28;20045;-62
2022/08/04 05:01:24;;;;;;;14.00;6.63;;;21.90;99.90;;;;;;5005346;28;20042;-63
2022/08/04 05:04:25;;;;;;;20.77;6.78;;;22.10;99.90;;;;;;5000802;28;20046;-63
2022/08/04 05:06:54;;;;;;;14.77;5.82;;;22.40;99.90;;;;;;5005384;28;20053;-63
2022/08/04 05:09:48;;;;;;;17.98;6.70;;;22.80;99.90;;;;;;5005774;28;20046;-64
2022/08/04 05:12:24;;;;;;;;;;;23.20;99.90;;;;;;5004560;28;20080;-63
2022/08/04 05:14:52;;;;;;;21.35;5.60;;;23.40;99.90;;;;;;5008979;28;19974;-64
2022/08/04 05:17:46;;;;;;;14.38;6.35;;;23.40;99.90;;;;;;5010706;28;20037;-63
2022/08/04 05:20:25;;;;;;;13.68;5.78;;;23.50;99.90;;;;;;5008089;28;20132;-63
2022/08/04 05:23:17;;;;;;;14.48;5.82;;;23.60;99.90;;;;;;5012980;28;20046;-64
2022/08/04 05:25:44;;;;;;;16.90;6.53;;;23.80;99.90;;;;;;5011079;28;20060;-64
2022/08/04 05:28:20;;;;;;;17.20;6.63;;;24.00;99.90;;;;;;5008482;28;20049;-62
2022/08/04 05:30:50;;;;;;;13.20;5.97;;;24.10;99.90;;;;;;5004576;28;20056;-62
2022/08/04 05:33:39;;;;;;;12.43;6.28;;;24.20;99.90;;;;;;5009321;28;20080;-62
2022/08/04 05:36:10;;;;;;;12.15;5.13;;;24.50;99.90;;;;;;4996168;28;20053;-68
2022/08/04 05:38:41;;;;;;;13.90;5.70;;;24.80;99.90;;;;;;5000272;28;20042;-63
2022/08/04 05:41:09;;;;;;;10.80;5.25;;;25.00;99.90;;;;;;5009296;28;20081;-68
2022/08/04 05:43:40;;;;;;;13.40;4.93;;;25.40;99.90;;;;;;5008374;28;20058;-62
2022/08/04 05:46:08;;;;;;;10.52;5.40;;;25.90;99.90;;;;;;5002253;28;20093;-69
2022/08/04 05:48:35;;;;;;;13.88;5.30;;;26.30;99.90;;;;;;5002330;28;20064;-62
2022/08/04 05:51:03;;;;;;;12.13;5.40;;;26.60;99.90;;;;;;5010284;28;20041;-67
2022/08/04 05:53:30;;;;;;;11.60;5.05;;;26.90;99.90;;;;;;5009987;28;20577;-64
2022/08/04 05:55:57;;;;;;;13.30;4.90;;;27.20;99.90;;;;;;5011151;28;20058;-62
2022/08/04 05:58:24;;;;;;;13.18;5.40;;;27.50;99.90;;;;;;5004794;28;20078;-63
2022/08/04 06:00:52;;;;;;;14.13;4.97;;;27.50;99.90;;;;;;5010154;28;20061;-63
2022/08/04 06:03:19;;;;;;;14.93;5.00;;;27.70;99.90;;;;;;5010722;28;20053;-63
2022/08/04 06:05:46;;;;;;;10.90;5.10;;;28.00;99.90;;;;;;5003094;28;20122;-64
2022/08/04 06:08:12;;;;;;;10.10;4.50;;;28.50;99.90;;;;;;5009230;28;20062;-65
2022/08/04 06:10:39;;;;;;;11.98;4.65;;;29.00;99.90;;;;;;5003476;28;20045;-64
2022/08/04 06:13:10;;;;;;;11.00;4.30;;;29.40;99.90;;;;;;5004663;28;20440;-64
2022/08/04 06:15:39;;;;;;;10.55;4.30;;;29.70;99.10;;;;;;5009280;28;20550;-63
2022/08/04 06:18:08;;;;;;;12.13;4.47;;;30.20;98.30;;;;;;4991590;28;20049;-64
2022/08/04 06:20:35;;;;;;;10.85;4.47;;;30.50;98.20;;;;;;5004080;28;20081;-66
2022/08/04 06:23:06;;;;;;;9.93;3.85;;;30.80;97.10;;;;;;5011666;28;20108;-64
2022/08/04 06:25:40;;;;;;;10.38;4.35;;;30.90;95.90;;;;;;5009771;28;20577;-64
2022/08/04 06:28:07;;;;;;;8.30;4.20;;;30.90;96.00;;;;;;5004356;28;20038;-65
2022/08/04 06:30:35;;;;;;;9.43;4.35;;;30.80;96.10;;;;;;5004001;28;20041;-63
2022/08/04 06:33:12;;;;;;;11.07;3.92;;;30.50;95.30;;;;;;5005812;28;20128;-64
2022/08/04 06:35:38;;;;;;;9.35;4.28;;;30.40;95.80;;;;;;5000074;28;20042;-64
2022/08/04 06:38:04;;;;;;;9.10;3.58;;;30.40;96.20;;;;;;5003401;28;20042;-64
2022/08/04 06:40:31;;;;;;;11.07;4.15;;;30.20;96.10;;;;;;4999923;28;20503;-63
2022/08/04 06:42:58;;;;;;;8.30;3.80;;;30.20;95.60;;;;;;5005339;28;20050;-63
2022/08/04 06:45:24;;;;;;;6.38;3.75;;;30.00;95.90;;;;;;5001138;28;20038;-65
2022/08/04 06:47:51;;;;;;;9.93;4.18;;;30.00;96.10;;;;;;5017146;28;20058;-63
2022/08/04 06:50:19;;;;;;;8.90;3.78;;;30.00;96.00;;;;;;5002069;28;20050;-64
2022/08/04 06:52:45;;;;;;;11.38;3.72;;;29.90;95.70;;;;;;5005029;28;20053;-64
2022/08/04 06:55:12;;;;;;;15.00;3.53;;;29.70;95.70;;;;;;5003115;28;20410;-63
2022/08/04 06:57:41;;;;;;;7.20;3.30;;;29.40;95.50;;;;;;5009270;28;20084;-63
2022/08/04 07:00:13;;;;;;;10.13;3.63;;;29.30;96.00;;;;;;5006411;28;20084;-64
2022/08/04 07:02:44;;;;;;;13.02;3.38;;;29.30;96.00;;;;;;5007396;28;20049;-63
2022/08/04 07:05:11;;;;;;;11.45;3.60;;;29.10;96.00;;;;;;5009274;28;20472;-63
2022/08/04 07:07:39;;;;;;;9.15;3.53;;;28.90;96.20;;;;;;5010373;28;20178;-65
2022/08/04 07:10:06;;;;;;;12.50;3.40;;;28.80;96.10;;;;;;4986497;28;20084;-63
2022/08/04 07:12:32;;;;;;;9.57;3.28;;;28.80;96.30;;;;;;5008649;28;20830;-63
2022/08/04 07:14:58;;;;;;;8.90;3.50;;;29.00;96.40;;;;;;5002068;28;20046;-63
2022/08/04 07:17:27;;;;;;;10.77;3.42;;;29.30;96.20;;;;;;5006405;28;20096;-63
2022/08/04 07:19:52;;;;;;;7.82;3.17;;;29.70;95.80;;;;;;4998548;28;20042;-64
2022/08/04 07:22:19;;;;;;;12.93;3.53;;;30.10;96.10;;;;;;5005268;28;20100;-70
2022/08/04 07:24:44;;;;;;;7.07;3.10;;;30.70;96.00;;;;;;5002614;28;20045;-62
2022/08/04 07:27:11;;;;;;;7.10;2.88;;;31.20;95.00;;;;;;5000621;28;20510;-64
2022/08/04 07:29:37;;;;;;;6.30;3.17;;;31.30;94.90;;;;;;5003138;28;20121;-63
2022/08/04 07:32:04;;;;;;;7.90;3.20;;;31.40;94.60;;;;;;4997883;28;20507;-63
2022/08/04 07:34:31;;;;;;;7.03;2.85;;;31.60;94.10;;;;;;5002595;28;20077;-63
2022/08/04 07:37:00;;;;;;;9.13;2.72;;;32.10;93.50;;;;;;4997237;28;20050;-63
2022/08/04 07:39:27;;;;;;;12.55;3.30;;;32.60;93.70;;;;;;5006280;28;20049;-64
2022/08/04 07:41:54;;;;;;;10.48;3.03;;;32.80;93.50;;;;;;5009603;28;20124;-65
2022/08/04 07:44:20;;;;;;;10.20;3.20;;;32.80;92.80;;;;;;5006260;28;20143;-64
2022/08/04 07:46:46;;;;;;;8.07;2.67;;;32.50;92.50;;;;;;5004590;28;20046;-64
2022/08/04 07:49:13;;;;;;;8.55;2.88;;;32.40;93.00;;;;;;4999926;28;20057;-66
2022/08/04 07:51:39;;;;;;;8.93;2.83;;;32.40;92.80;;;;;;5005460;28;20054;-64
2022/08/04 07:54:08;;;;;;;8.32;3.25;;;32.60;93.00;;;;;;4998999;28;20096;-62
2022/08/04 07:56:36;;;;;;;9.93;3.33;;;32.80;93.10;;;;;;4999699;28;20191;-69
2022/08/04 07:59:03;;;;;;;6.32;2.83;;;33.30;93.10;;;;;;5001345;28;20531;-64
2022/08/04 08:01:29;;;;;;;8.20;3.22;;;33.70;92.90;;;;;;4996869;28;20437;-64
2022/08/04 08:03:56;;;;;;;8.02;2.70;;;33.80;91.70;;;;;;5003931;28;20116;-63
2022/08/04 08:06:28;;;;;;;7.43;3.40;;;33.80;92.30;;;;;;4997518;28;20058;-63
2022/08/04 08:08:55;;;;;;;6.40;2.90;;;33.80;92.10;;;;;;5005685;28;20065;-63
2022/08/04 08:11:21;;;;;;;11.52;3.42;;;34.20;92.40;;;;;;4998696;28;20033;-63
2022/08/04 08:13:47;;;;;;;10.27;3.10;;;34.20;91.70;;;;;;4999700;28;20049;-63
2022/08/04 08:16:13;;;;;;;6.90;3.20;;;34.60;91.80;;;;;;4986306;28;20131;-66
2022/08/04 08:18:39;;;;;;;8.20;3.90;;;34.90;91.90;;;;;;5008109;28;20077;-63
2022/08/04 08:21:06;;;;;;;10.05;4.00;;;34.90;91.70;;;;;;4996149;28;20092;-63
2022/08/04 08:23:33;;;;;;;12.77;4.30;;;34.70;92.20;;;;;;5005906;28;20069;-70
2022/08/04 08:25:59;;;;;;;8.07;3.80;;;34.70;91.60;;;;;;5006303;28;20045;-62
2022/08/04 08:28:25;;;;;;;8.40;4.40;;;34.60;91.70;;;;;;5004009;28;20038;-63
2022/08/04 08:30:51;;;;;;;11.18;4.35;;;34.50;91.60;;;;;;4984680;28;20052;-63
2022/08/04 08:33:17;;;;;;;10.48;4.30;;;34.40;91.30;;;;;;5002928;28;20081;-64
2022/08/04 08:35:52;;;;;;;7.55;3.83;;;34.10;90.90;;;;;;5000350;28;20048;-65
2022/08/04 08:38:26;;;;;;;9.40;3.85;;;33.70;91.30;;;;;;5001223;28;20491;-66
2022/08/04 08:41:24;;;;;;;8.98;4.10;;;33.60;91.40;;;;;;5005417;28;20045;-64
2022/08/04 08:44:10;;;;;;;6.47;4.43;;;34.00;91.30;;;;;;5001643;28;20046;-61
2022/08/04 08:47:13;;;;;;;9.73;4.18;;;34.40;91.10;;;;;;5004238;28;20061;-63
2022/08/04 08:49:49;;;;;;;8.80;4.05;;;34.60;91.00;;;;;;4951551;29;20063;-62
2022/08/04 08:52:42;;;;;;;13.07;4.40;;;35.00;91.00;;;;;;5002120;28;20054;-62
2022/08/04 08:55:36;;;;;;;9.98;4.25;;;35.10;90.80;;;;;;5012182;28;20085;-63
2022/08/04 08:58:20;;;;;;;9.73;3.38;;;35.20;90.50;;;;;;5003691;28;20042;-64
2022/08/04 09:00:58;;;;;;;8.98;3.90;;;35.30;90.40;;;;;;5007505;28;20078;-63
2022/08/04 09:03:54;;;;;;;9.18;4.40;;;35.20;90.00;;;;;;5010112;28;20037;-67
2022/08/04 09:06:41;;;;;;;8.52;4.07;;;35.00;90.30;;;;;;5009570;28;20050;-62
2022/08/04 09:09:36;;;;;;;9.32;4.00;;;35.20;90.40;;;;;;5002939;28;20042;-62
2022/08/04 09:12:24;;;;;;;11.98;4.57;;;35.30;90.30;;;;;;5003472;28;20464;-63
2022/08/04 09:14:59;;;;;;;9.20;4.40;;;35.10;90.30;;;;;;5006861;28;20126;-64
2022/08/04 09:17:38;;;;;;;8.50;4.50;;;34.60;90.70;;;;;;5004627;28;20132;-63
2022/08/04 09:20:33;;;;;;;14.48;4.55;;;34.70;91.00;;;;;;5005221;28;20049;-67
2022/08/04 09:23:22;;;;;;;8.43;4.65;;;34.30;90.60;;;;;;5001036;28;20050;-68
2022/08/04 09:25:53;;;;;;;9.65;4.60;;;34.40;91.00;;;;;;5006833;28;20054;-62
2022/08/04 09:28:24;;;;;;;7.40;4.35;;;34.70;90.50;;;;;;4999914;28;20042;-62
2022/08/04 09:31:05;;;;;;;9.65;4.28;;;35.10;90.20;;;;;;5001791;28;20189;-63
2022/08/04 09:33:48;;;;;;;81.13;16.38;;;35.30;90.10;;;;;;5011448;28;20057;-62
2022/08/04 09:36:22;;;;;;;7.85;4.00;;;35.70;89.80;;;;;;5008892;28;20042;-62
2022/08/04 09:39:03;;;;;;;8.95;3.90;;;36.00;89.60;;;;;;4998399;28;20458;-63
2022/08/04 09:41:40;;;;;;;7.70;3.67;;;36.20;88.90;;;;;;5007912;28;20084;-64
2022/08/04 09:44:14;;;;;;;8.73;3.45;;;36.20;88.80;;;;;;5005679;28;20042;-64
2022/08/04 09:47:02;;;;;;;11.93;3.45;;;36.20;88.40;;;;;;5001994;28;20130;-64
2022/08/04 09:50:08;;;;;;;12.48;3.75;;;36.40;87.90;;;;;;5007769;28;20056;-63
2022/08/04 09:53:01;;;;;;;8.23;2.90;;;36.50;87.50;;;;;;5005896;28;20058;-64
2022/08/04 09:55:44;;;;;;;8.70;2.30;;;36.10;86.80;;;;;;5004638;28;20145;-64
2022/08/04 09:58:24;;;;;;;8.55;2.90;;;35.60;87.00;;;;;;5008751;28;20744;-63
2022/08/04 10:00:59;;;;;;;8.80;2.50;;;35.10;87.50;;;;;;5005015;28;20365;-68
2022/08/04 10:03:32;;;;;;;6.68;2.70;;;34.40;87.30;;;;;;5007532;28;20045;-62
2022/08/04 10:06:19;;;;;;;10.25;2.50;;;34.10;87.80;;;;;;5005240;28;20041;-63
2022/08/04 10:09:00;;;;;;;5.50;2.38;;;33.90;89.60;;;;;;5006207;28;20053;-62
2022/08/04 10:11:43;;;;;;;6.60;2.10;;;33.80;89.00;;;;;;5008601;28;20053;-62
2022/08/04 10:14:55;;;;;;;6.65;2.00;;;33.80;87.40;;;;;;5008360;28;20042;-64
2022/08/04 10:17:32;;;;;;;6.25;2.10;;;33.70;87.50;;;;;;5005124;28;20125;-63
2022/08/04 10:20:26;;;;;;;5.20;2.05;;;33.40;87.60;;;;;;5003952;28;20037;-62
2022/08/04 10:23:11;;;;;;;6.63;2.10;;;33.20;87.70;;;;;;5002332;28;20064;-63
2022/08/04 10:26:00;;;;;;;10.07;2.50;;;33.20;88.60;;;;;;5003673;28;20042;-62
2022/08/04 10:28:29;;;;;;;4.95;2.05;;;33.30;88.50;;;;;;5003835;28;20092;-62
2022/08/04 10:31:04;;;;;;;7.03;2.33;;;33.30;88.90;;;;;;5009139;28;20076;-63
2022/08/04 10:33:37;;;;;;;7.75;2.00;;;33.20;89.10;;;;;;5005378;28;20440;-64
2022/08/04 10:36:08;;;;;;;8.80;2.08;;;33.20;88.90;;;;;;5007822;28;20046;-62
2022/08/04 10:38:48;;;;;;;7.32;2.33;;;33.20;88.80;;;;;;5000794;28;20620;-63
2022/08/04 10:41:39;;;;;;;7.47;2.55;;;33.00;89.40;;;;;;5001300;28;20050;-62
2022/08/04 10:44:12;;;;;;;6.05;2.25;;;32.90;89.40;;;;;;4983049;28;20046;-62
2022/08/04 10:46:46;;;;;;;9.02;2.03;;;32.90;90.30;;;;;;5003131;28;20046;-64
2022/08/04 10:49:34;;;;;;;7.32;2.28;;;32.90;90.30;;;;;;5008658;28;20500;-63
2022/08/04 10:52:15;;;;;;;6.07;2.13;;;32.50;90.60;;;;;;4998910;28;20081;-64
2022/08/04 10:55:10;;;;;;;7.68;2.22;;;32.40;91.00;;;;;;5005994;28;20046;-63
2022/08/04 10:57:45;;;;;;;8.70;2.08;;;32.30;91.40;;;;;;4984858;28;20419;-64
2022/08/04 11:00:20;;;;;;;8.02;2.38;;;32.10;91.30;;;;;;4996087;28;20037;-64
2022/08/04 11:02:55;;;;;;;5.85;1.92;;;32.00;90.80;;;;;;4999539;28;20054;-69
2022/08/04 11:05:44;;;;;;;6.50;2.40;;;32.00;90.90;;;;;;5000963;28;20057;-63
2022/08/04 11:08:23;;;;;;;7.20;2.05;;;32.00;91.40;;;;;;5009093;28;20065;-63
2022/08/04 11:10:54;;;;;;;9.60;2.20;;;32.10;91.60;;;;;;5007111;28;20189;-63
2022/08/04 11:13:23;;;;;;;6.20;1.98;;;32.10;91.00;;;;;;5003642;28;20038;-62
2022/08/04 11:15:57;;;;;;;7.90;1.92;;;32.20;90.60;;;;;;5008825;28;20113;-65
2022/08/04 11:18:59;;;;;;;8.00;2.10;;;32.30;89.60;;;;;;5009232;28;20045;-62
2022/08/04 11:21:30;;;;;;;4.00;1.80;;;32.30;90.20;;;;;;4995327;28;20116;-63
2022/08/04 11:24:34;;;;;;;2.65;1.20;;;32.30;90.90;;;;;;5005246;28;20057;-62
2022/08/04 11:27:34;;;;;;;3.28;1.50;;;31.90;91.30;;;;;;5001191;28;20039;-62
2022/08/04 11:30:04;;;;;;;3.20;1.73;;;31.60;91.70;;;;;;4999587;28;20072;-62
2022/08/04 11:32:40;;;;;;;4.38;1.58;;;31.40;91.50;;;;;;5008064;28;20108;-62
2022/08/04 11:35:10;;;;;;;6.88;1.88;;;31.30;91.50;;;;;;5009118;28;20141;-61
2022/08/04 11:37:49;;;;;;;5.63;1.52;;;31.40;91.60;;;;;;5002980;28;20063;-61
2022/08/04 11:40:41;;;;;;;5.65;1.60;;;31.50;91.80;;;;;;4984760;28;20041;-60
2022/08/04 11:43:16;;;;;;;4.20;1.50;;;31.40;91.90;;;;;;5005408;28;20325;-62
2022/08/04 11:46:00;;;;;;;4.13;1.63;;;31.30;92.00;;;;;;5003873;28;20806;-61
2022/08/04 11:48:43;;;;;;;3.05;1.70;;;31.20;91.80;;;;;;5006940;28;20097;-61
2022/08/04 11:51:10;;;;;;;4.35;1.98;;;31.10;91.60;;;;;;5002270;28;20053;-61
2022/08/04 11:53:37;;;;;;;3.38;1.35;;;31.10;91.50;;;;;;5002320;28;20049;-61
2022/08/04 11:56:08;;;;;;;4.18;1.63;;;31.30;91.60;;;;;;5008947;28;20438;-60
2022/08/04 11:58:34;;;;;;;4.60;1.98;;;31.20;91.00;;;;;;4999615;28;20046;-61
2022/08/04 12:01:18;;;;;;;2.50;1.35;;;31.20;90.80;;;;;;5004694;28;20460;-62
2022/08/04 12:03:50;;;;;;;5.05;1.60;;;31.20;90.50;;;;;;5007076;28;20046;-62
2022/08/04 12:06:55;;;;;;;5.88;1.80;;;31.20;90.40;;;;;;5002559;28;20129;-62
2022/08/04 12:09:45;;;;;;;4.15;1.40;;;31.00;90.50;;;;;;4995794;28;20065;-62
2022/08/04 12:12:46;;;;;;;2.38;1.25;;;30.90;90.40;;;;;;5022992;28;20054;-62
2022/08/04 12:15:22;;;;;;;3.20;1.42;;;30.80;90.30;;;;;;5001935;28;20249;-61
2022/08/04 12:18:05;;;;;;;3.15;1.40;;;30.80;90.60;;;;;;5003810;28;20684;-62
2022/08/04 12:20:39;;;;;;;2.50;1.30;;;30.70;90.30;;;;;;5006113;28;20442;-62
2022/08/04 12:23:13;;;;;;;2.88;1.20;;;30.60;90.70;;;;;;5005679;28;20042;-61
2022/08/04 12:25:43;;;;;;;4.57;1.30;;;30.60;90.40;;;;;;5003883;28;20083;-62
2022/08/04 12:28:36;;;;;;;6.03;1.75;;;30.60;90.10;;;;;;5005774;28;20042;-61
2022/08/04 12:31:19;;;;;;;3.58;1.38;;;30.60;90.20;;;;;;5000211;28;20081;-62
2022/08/04 12:33:53;;;;;;;4.43;1.45;;;30.40;90.00;;;;;;5002523;28;20403;-61
2022/08/04 12:36:43;;;;;;;4.57;1.60;;;30.40;90.30;;;;;;4996936;28;20050;-62
2022/08/04 12:39:15;;;;;;;3.55;1.40;;;30.30;90.20;;;;;;5000207;28;20574;-62
2022/08/04 12:42:34;;;;;;;4.15;1.40;;;30.20;90.30;;;;;;5006254;28;20085;-62
2022/08/04 12:45:06;;;;;;;2.50;1.52;;;30.10;90.60;;;;;;4945562;29;20366;-62
2022/08/04 12:47:35;;;;;;;3.03;1.40;;;30.00;90.40;;;;;;4997856;28;20574;-61
2022/08/04 12:50:02;;;;;;;6.00;2.33;;;30.00;90.10;;;;;;5001517;28;20045;-61
2022/08/04 12:52:32;;;;;;;2.45;1.42;;;29.90;90.20;;;;;;5005746;28;20057;-61
2022/08/04 12:54:59;;;;;;;2.50;1.35;;;29.90;90.50;;;;;;5001875;28;20120;-61
2022/08/04 12:57:26;;;;;;;2.85;1.45;;;30.00;90.40;;;;;;5022142;28;20530;-62
2022/08/04 12:59:52;;;;;;;3.30;1.23;;;30.20;90.60;;;;;;4995357;28;20081;-63
2022/08/04 13:02:25;;;;;;;1.98;1.08;;;30.20;89.90;;;;;;5002593;28;20088;-63
2022/08/04 13:04:53;;;;;;;5.90;1.50;;;30.20;88.80;;;;;;5005504;28;20197;-62
2022/08/04 13:07:22;;;;;;;3.17;1.33;;;30.20;88.70;;;;;;5001235;28;20046;-61
2022/08/04 13:09:47;;;;;;;3.10;1.15;;;30.20;89.30;;;;;;5007426;28;20054;-61
2022/08/04 13:12:20;;;;;;;3.95;1.30;;;30.30;89.80;;;;;;5005826;28;20104;-62
2022/08/04 13:14:50;;;;;;;1.40;0.98;;;30.30;89.10;;;;;;4976695;28;20054;-61
2022/08/04 13:17:16;;;;;;;3.95;1.42;;;30.20;89.90;;;;;;5004999;28;20104;-60
2022/08/04 13:19:53;;;;;;;2.97;1.13;;;30.20;89.70;;;;;;5002801;28;20045;-61
2022/08/04 13:22:27;;;;;;;3.72;1.30;;;30.30;90.10;;;;;;5007383;28;20096;-62
2022/08/04 13:24:56;;;;;;;3.42;1.40;;;30.30;89.10;;;;;;4999193;28;20043;-61
2022/08/04 13:27:23;;;;;;;2.30;1.20;;;30.20;89.80;;;;;;5004493;28;20045;-63
2022/08/04 13:29:54;;;;;;;4.50;1.35;;;30.30;90.10;;;;;;5007804;28;20118;-60
2022/08/04 13:32:22;;;;;;;1.67;1.00;;;30.30;89.50;;;;;;4983802;28;20046;-63
2022/08/04 13:34:51;;;;;;;2.75;1.30;;;30.40;89.00;;;;;;4999316;28;20050;-61